Time;durP1;ratioP1;P1;durP2;ratioP2;P2;SDS_P1;SDS_P2;PMS_P1;PMS_P2;Temp;Humidity;BMP_temperature;BMP_pressure;BME280_temperature;BME280_humidity;BME280_pressure;Samples;Min_cycle;Max_cycle;Signal;HPM_P1;HPM_P2
2021/03/20 00:01:17;;;;;;;6.10;2.83;;;3.70;99.90;;;;;;5026093;28;20026;-67
2021/03/20 00:03:42;;;;;;;5.45;2.70;;;3.60;99.90;;;;;;5024505;28;20045;-67
2021/03/20 00:06:09;;;;;;;6.90;3.10;;;3.60;99.90;;;;;;5026823;28;20038;-67
2021/03/20 00:08:36;;;;;;;8.43;3.50;;;3.50;99.90;;;;;;5029534;28;20034;-67
2021/03/20 00:11:02;;;;;;;5.65;2.58;;;3.40;99.90;;;;;;5017534;28;20042;-72
2021/03/20 00:13:30;;;;;;;7.07;3.53;;;3.40;99.90;;;;;;5009451;28;20037;-67
2021/03/20 00:15:56;;;;;;;8.23;2.83;;;3.40;99.90;;;;;;5007240;28;20042;-66
2021/03/20 00:18:24;;;;;;;6.40;3.08;;;3.40;99.90;;;;;;5009024;28;20104;-66
2021/03/20 00:20:50;;;;;;;6.72;3.00;;;3.30;99.90;;;;;;5007968;28;20046;-67
2021/03/20 00:23:16;;;;;;;8.48;3.35;;;3.30;99.90;;;;;;5007350;28;20177;-66
2021/03/20 00:25:42;;;;;;;4.72;2.72;;;3.30;99.90;;;;;;5007883;28;20109;-66
2021/03/20 00:28:10;;;;;;;6.05;3.10;;;3.40;99.90;;;;;;5008093;28;20037;-66
2021/03/20 00:30:37;;;;;;;4.38;2.80;;;3.30;99.90;;;;;;5008736;28;20042;-66
2021/03/20 00:33:03;;;;;;;6.78;3.92;;;3.30;99.90;;;;;;5010863;28;20040;-65
2021/03/20 00:35:28;;;;;;;10.43;2.92;;;3.20;99.90;;;;;;5007665;28;20124;-66
2021/03/20 00:37:54;;;;;;;5.63;2.95;;;3.20;99.90;;;;;;5007536;28;20081;-66
2021/03/20 00:40:25;;;;;;;8.35;3.70;;;3.20;99.90;;;;;;5007174;28;20129;-66
2021/03/20 00:42:51;;;;;;;4.88;2.90;;;3.20;99.90;;;;;;5008230;28;20029;-66
2021/03/20 00:45:19;;;;;;;5.15;2.53;;;3.20;99.90;;;;;;5006995;28;20042;-66
2021/03/20 00:47:44;;;;;;;7.78;3.20;;;3.20;99.90;;;;;;5008624;28;20129;-66
2021/03/20 00:50:13;;;;;;;9.25;3.20;;;3.20;99.90;;;;;;5006962;28;20527;-67
2021/03/20 00:52:40;;;;;;;7.38;3.88;;;3.20;99.90;;;;;;5006499;28;20491;-66
2021/03/20 00:55:07;;;;;;;5.82;2.78;;;3.20;99.90;;;;;;5006000;28;20045;-66
2021/03/20 00:57:33;;;;;;;10.10;3.13;;;3.20;99.90;;;;;;5006375;28;20069;-66
2021/03/20 00:59:59;;;;;;;11.75;4.10;;;3.10;99.90;;;;;;5006858;28;20427;-66
2021/03/20 01:02:24;;;;;;;7.00;2.30;;;3.10;99.90;;;;;;5007011;28;20121;-66
2021/03/20 01:04:50;;;;;;;5.78;2.50;;;3.10;99.90;;;;;;5007944;28;20666;-66
2021/03/20 01:07:15;;;;;;;5.63;2.58;;;3.10;99.90;;;;;;5006998;28;20157;-66
2021/03/20 01:09:41;;;;;;;4.97;2.47;;;3.10;99.90;;;;;;5007241;28;20490;-66
2021/03/20 01:12:07;;;;;;;4.82;3.05;;;3.10;99.90;;;;;;5005853;28;20133;-66
2021/03/20 01:14:33;;;;;;;5.18;2.75;;;3.10;99.90;;;;;;5006591;28;20048;-66
2021/03/20 01:16:58;;;;;;;7.47;3.10;;;3.00;99.90;;;;;;5003988;28;20034;-66
2021/03/20 01:19:24;;;;;;;7.13;3.38;;;3.10;99.90;;;;;;5006696;28;20048;-66
2021/03/20 01:21:50;;;;;;;6.70;3.15;;;3.00;99.90;;;;;;5005337;28;20042;-66
2021/03/20 01:24:15;;;;;;;4.60;2.80;;;3.10;99.90;;;;;;5007057;28;20082;-66
2021/03/20 01:26:41;;;;;;;6.95;3.47;;;3.10;99.90;;;;;;5006810;28;20045;-66
2021/03/20 01:29:07;;;;;;;6.65;2.70;;;3.00;99.90;;;;;;5003087;28;20068;-67
2021/03/20 01:31:32;;;;;;;5.20;2.70;;;2.90;99.90;;;;;;5006158;28;20037;-66
2021/03/20 01:33:58;;;;;;;5.38;2.58;;;3.00;99.90;;;;;;5009757;28;20045;-66
2021/03/20 01:36:24;;;;;;;5.82;2.83;;;3.00;99.90;;;;;;5006543;28;20064;-66
2021/03/20 01:38:49;;;;;;;4.93;2.85;;;2.90;99.90;;;;;;5006639;28;20033;-66
2021/03/20 01:41:23;;;;;;;6.30;2.88;;;2.90;99.90;;;;;;5006929;28;20042;-66
2021/03/20 01:43:49;;;;;;;6.22;2.50;;;2.90;99.90;;;;;;5006400;28;20053;-66
2021/03/20 01:46:33;;;;;;;4.97;2.78;;;2.90;99.90;;;;;;5006972;28;20037;-66
2021/03/20 01:48:59;;;;;;;5.75;3.20;;;2.90;99.90;;;;;;5006288;28;20579;-66
2021/03/20 01:51:24;;;;;;;4.63;2.72;;;2.80;99.90;;;;;;5006752;28;20124;-66
2021/03/20 01:53:59;;;;;;;7.93;2.83;;;2.80;99.90;;;;;;5004775;28;20040;-67
2021/03/20 01:56:40;;;;;;;6.63;3.33;;;2.80;99.90;;;;;;5005233;28;20442;-66
2021/03/20 01:59:07;;;;;;;5.95;3.00;;;2.70;99.90;;;;;;5006137;28;20030;-66
2021/03/20 02:01:33;;;;;;;5.25;2.88;;;2.60;99.90;;;;;;5006595;28;20030;-66
2021/03/20 02:04:00;;;;;;;4.80;2.70;;;2.60;99.90;;;;;;5006254;28;20529;-66
2021/03/20 02:06:26;;;;;;;6.30;2.95;;;2.60;99.90;;;;;;5006594;28;20487;-66
2021/03/20 02:08:54;;;;;;;5.97;3.15;;;2.60;99.90;;;;;;5006834;28;20038;-66
2021/03/20 02:11:26;;;;;;;6.95;2.97;;;2.60;99.90;;;;;;5010149;28;20034;-66
2021/03/20 02:14:08;;;;;;;5.88;2.90;;;2.60;99.90;;;;;;5010014;28;20025;-64
2021/03/20 02:17:15;;;;;;;11.18;4.35;;;2.50;99.90;;;;;;5009017;28;20058;-66
2021/03/20 02:19:44;;;;;;;4.22;2.60;;;2.50;99.90;;;;;;5007458;28;20041;-65
2021/03/20 02:22:24;;;;;;;5.35;3.00;;;2.50;99.90;;;;;;5010862;28;20561;-66
2021/03/20 02:25:43;;;;;;;6.78;3.40;;;2.40;99.90;;;;;;5011586;28;20065;-65
2021/03/20 02:28:21;;;;;;;5.72;2.50;;;2.40;99.90;;;;;;5008198;28;20131;-66
2021/03/20 02:30:56;;;;;;;8.70;3.05;;;2.30;99.90;;;;;;5010010;28;20038;-67
2021/03/20 02:33:36;;;;;;;7.75;3.75;;;2.30;99.90;;;;;;5011034;28;20184;-66
2021/03/20 02:36:20;;;;;;;6.53;2.83;;;2.30;99.90;;;;;;5012351;28;20165;-64
2021/03/20 02:38:54;;;;;;;5.55;3.45;;;2.30;99.90;;;;;;5010553;28;20034;-65
2021/03/20 02:41:26;;;;;;;5.57;3.22;;;2.20;99.90;;;;;;5013004;28;20037;-64
2021/03/20 02:44:00;;;;;;;5.57;2.83;;;2.30;99.90;;;;;;5009749;28;20034;-65
2021/03/20 02:46:32;;;;;;;7.47;3.00;;;2.20;99.90;;;;;;5010320;28;20041;-64
2021/03/20 02:49:12;;;;;;;4.95;2.97;;;2.20;99.90;;;;;;5009405;28;20052;-66
2021/03/20 02:52:03;;;;;;;4.80;2.40;;;2.20;99.90;;;;;;5028972;28;20048;-66
2021/03/20 02:54:51;;;;;;;5.97;2.85;;;2.10;99.90;;;;;;5008187;28;20034;-64
2021/03/20 02:57:32;;;;;;;5.20;3.28;;;2.10;99.90;;;;;;5009556;28;20045;-64
2021/03/20 03:00:03;;;;;;;7.18;2.97;;;2.10;99.90;;;;;;5015183;28;20037;-66
2021/03/20 03:02:32;;;;;;;7.43;3.30;;;2.00;99.90;;;;;;5009183;28;20100;-64
2021/03/20 03:05:19;;;;;;;5.90;2.65;;;2.10;99.90;;;;;;5013013;28;20032;-65
2021/03/20 03:08:03;;;;;;;5.82;3.28;;;2.10;99.90;;;;;;5006421;28;20061;-65
2021/03/20 03:10:34;;;;;;;7.93;3.00;;;2.10;99.90;;;;;;5010038;28;20080;-65
2021/03/20 03:13:10;;;;;;;6.00;2.60;;;2.10;99.90;;;;;;5012159;28;20042;-65
2021/03/20 03:15:48;;;;;;;7.43;3.63;;;2.00;99.90;;;;;;5009529;28;20042;-64
2021/03/20 03:18:28;;;;;;;4.78;2.65;;;2.00;99.90;;;;;;5006426;28;20204;-66
2021/03/20 03:20:57;;;;;;;6.75;3.08;;;2.00;99.90;;;;;;5010807;28;20057;-65
2021/03/20 03:23:30;;;;;;;5.90;2.90;;;1.90;99.90;;;;;;5010135;28;20038;-66
2021/03/20 03:26:25;;;;;;;4.88;2.80;;;1.90;99.90;;;;;;5012168;28;20026;-66
2021/03/20 03:28:53;;;;;;;5.43;2.83;;;1.90;99.90;;;;;;5004096;28;20057;-66
2021/03/20 03:31:43;;;;;;;6.57;2.95;;;1.90;99.90;;;;;;5013780;28;20044;-65
2021/03/20 03:34:18;;;;;;;5.57;3.25;;;1.90;99.90;;;;;;5001907;28;20030;-65
2021/03/20 03:36:53;;;;;;;7.60;3.08;;;1.90;99.90;;;;;;5008829;28;20057;-65
2021/03/20 03:39:30;;;;;;;6.63;3.20;;;1.90;99.90;;;;;;5021117;28;20029;-66
2021/03/20 03:41:56;;;;;;;9.25;3.28;;;1.90;99.90;;;;;;5029058;28;20068;-65
2021/03/20 03:44:21;;;;;;;4.70;2.75;;;1.90;99.90;;;;;;5025635;28;20049;-66
2021/03/20 03:46:49;;;;;;;6.38;3.70;;;1.80;99.90;;;;;;5021397;28;20125;-66
2021/03/20 03:49:20;;;;;;;5.93;2.63;;;1.80;99.90;;;;;;5006031;28;20567;-65
2021/03/20 03:51:46;;;;;;;6.95;2.78;;;1.70;99.90;;;;;;5008074;28;20034;-65
2021/03/20 03:54:11;;;;;;;6.97;3.53;;;1.70;99.90;;;;;;5009339;28;20029;-66
2021/03/20 03:57:04;;;;;;;5.70;3.13;;;1.70;99.90;;;;;;5009243;28;20034;-65
2021/03/20 03:59:52;;;;;;;7.07;3.00;;;1.60;99.90;;;;;;5010897;28;20041;-66
2021/03/20 04:02:36;;;;;;;6.07;2.72;;;1.60;99.90;;;;;;5023689;28;20118;-66
2021/03/20 04:05:22;;;;;;;5.97;3.28;;;1.60;99.90;;;;;;5025775;28;20439;-65
2021/03/20 04:08:06;;;;;;;7.80;3.05;;;1.50;99.90;;;;;;5008043;28;20162;-65
2021/03/20 04:10:46;;;;;;;11.15;3.28;;;1.50;99.90;;;;;;5007728;28;20037;-65
2021/03/20 04:13:39;;;;;;;5.47;3.05;;;1.40;99.90;;;;;;5008716;28;20029;-65
2021/03/20 04:16:07;;;;;;;7.78;2.92;;;1.40;99.90;;;;;;4982892;28;20029;-65
2021/03/20 04:18:39;;;;;;;5.22;3.22;;;1.40;99.90;;;;;;5007027;28;20045;-65
2021/03/20 04:21:21;;;;;;;6.32;3.40;;;1.30;99.90;;;;;;5010880;28;20065;-65
2021/03/20 04:24:01;;;;;;;7.70;3.50;;;1.30;99.90;;;;;;5007795;28;20030;-67
2021/03/20 04:26:36;;;;;;;8.53;3.43;;;1.30;99.90;;;;;;5009455;28;20045;-65
2021/03/20 04:29:32;;;;;;;9.20;3.10;;;1.20;99.90;;;;;;5010377;28;20433;-65
2021/03/20 04:32:22;;;;;;;4.72;2.63;;;1.20;99.90;;;;;;5007151;28;20029;-65
2021/03/20 04:34:55;;;;;;;7.40;3.72;;;1.20;99.90;;;;;;4997048;28;20072;-65
2021/03/20 04:37:25;;;;;;;6.63;3.85;;;1.20;99.90;;;;;;5012089;28;20040;-65
2021/03/20 04:39:53;;;;;;;8.68;4.15;;;1.20;99.90;;;;;;5007336;28;20034;-65
2021/03/20 04:42:31;;;;;;;7.15;3.08;;;1.10;99.90;;;;;;5009829;28;20040;-65
2021/03/20 04:45:01;;;;;;;7.65;3.28;;;1.10;99.90;;;;;;5010511;28;20034;-65
2021/03/20 04:47:29;;;;;;;4.55;2.28;;;1.10;99.90;;;;;;5008116;28;20046;-65
2021/03/20 04:49:58;;;;;;;8.38;3.28;;;1.10;99.90;;;;;;5007873;28;20046;-65
2021/03/20 04:52:30;;;;;;;7.57;3.65;;;1.10;99.90;;;;;;5008518;28;20038;-65
2021/03/20 04:54:57;;;;;;;5.68;3.10;;;1.00;99.90;;;;;;5006928;28;20363;-65
2021/03/20 04:57:33;;;;;;;6.88;3.65;;;0.90;99.90;;;;;;5007392;28;20111;-65
2021/03/20 05:00:05;;;;;;;6.97;3.45;;;0.90;99.90;;;;;;5009560;28;20033;-65
2021/03/20 05:02:35;;;;;;;7.80;3.22;;;0.90;99.90;;;;;;5006029;28;20041;-65
2021/03/20 05:05:26;;;;;;;7.55;2.95;;;0.80;99.90;;;;;;5006753;28;20058;-65
2021/03/20 05:08:00;;;;;;;8.88;3.58;;;0.80;99.90;;;;;;5005660;28;20081;-65
2021/03/20 05:10:36;;;;;;;6.38;3.33;;;0.80;99.90;;;;;;5008504;28;20088;-65
2021/03/20 05:13:05;;;;;;;7.20;3.45;;;0.80;99.90;;;;;;5009229;28;20038;-65
2021/03/20 05:15:33;;;;;;;12.07;3.78;;;0.80;99.90;;;;;;5010113;28;20031;-65
2021/03/20 05:17:59;;;;;;;5.40;3.40;;;0.90;99.90;;;;;;5005871;28;20030;-65
2021/03/20 05:20:25;;;;;;;9.90;3.35;;;1.10;99.90;;;;;;5009359;28;20083;-65
2021/03/20 05:22:51;;;;;;;11.85;3.42;;;1.20;99.90;;;;;;5006981;28;20123;-65
2021/03/20 05:25:19;;;;;;;8.32;3.50;;;1.40;99.90;;;;;;5005508;28;20599;-65
2021/03/20 05:27:45;;;;;;;8.30;3.40;;;1.40;99.90;;;;;;5005652;28;20049;-65
2021/03/20 05:30:12;;;;;;;13.93;3.85;;;1.50;99.90;;;;;;5010016;28;20053;-65
2021/03/20 05:32:38;;;;;;;7.13;3.38;;;1.60;99.90;;;;;;5006849;28;20025;-65
2021/03/20 05:35:08;;;;;;;6.57;3.58;;;1.60;99.90;;;;;;5008574;28;20084;-65
2021/03/20 05:37:37;;;;;;;7.43;3.65;;;1.60;99.90;;;;;;5004399;28;20022;-65
2021/03/20 05:40:13;;;;;;;6.85;3.45;;;1.70;99.90;;;;;;5008122;28;20105;-65
2021/03/20 05:43:00;;;;;;;7.43;3.50;;;1.70;99.90;;;;;;5006459;28;20032;-65
2021/03/20 05:45:40;;;;;;;6.95;3.55;;;1.80;99.90;;;;;;5008526;28;20089;-65
2021/03/20 05:48:14;;;;;;;8.63;3.35;;;1.80;99.90;;;;;;5006577;28;20054;-65
2021/03/20 05:50:49;;;;;;;8.48;3.30;;;1.80;99.90;;;;;;5007070;28;20042;-65
2021/03/20 05:53:51;;;;;;;8.77;3.65;;;1.80;99.90;;;;;;5007529;28;20045;-65
2021/03/20 05:56:40;;;;;;;7.15;3.10;;;1.80;99.90;;;;;;5006197;28;20667;-65
2021/03/20 05:59:11;;;;;;;5.97;3.25;;;1.80;99.90;;;;;;5006094;28;20040;-66
2021/03/20 06:01:49;;;;;;;8.90;3.03;;;1.90;99.90;;;;;;5006791;28;20045;-65
2021/03/20 06:04:40;;;;;;;11.95;3.97;;;1.90;99.90;;;;;;5010936;28;20522;-65
2021/03/20 06:07:15;;;;;;;6.13;3.20;;;1.90;99.90;;;;;;5005412;28;20580;-66
2021/03/20 06:09:47;;;;;;;8.57;3.47;;;2.00;99.90;;;;;;5008372;28;20034;-65
2021/03/20 06:12:54;;;;;;;8.85;3.60;;;2.10;99.90;;;;;;5010543;28;20057;-65
2021/03/20 06:16:04;;;;;;;8.18;3.50;;;2.20;99.90;;;;;;4984310;28;20038;-65
2021/03/20 06:18:57;;;;;;;6.95;3.75;;;2.30;99.90;;;;;;4984793;28;20029;-65
2021/03/20 06:21:53;;;;;;;5.80;4.03;;;2.40;99.90;;;;;;5004482;28;20038;-65
2021/03/20 06:24:46;;;;;;;5.55;2.80;;;2.40;99.90;;;;;;5009899;28;20056;-65
2021/03/20 06:27:16;;;;;;;16.25;5.18;;;2.50;99.90;;;;;;5006961;28;20062;-65
2021/03/20 06:29:56;;;;;;;6.15;3.20;;;2.60;99.90;;;;;;5005024;28;20113;-65
2021/03/20 06:32:34;;;;;;;6.40;3.28;;;2.70;99.90;;;;;;5006478;28;20034;-65
2021/03/20 06:35:04;;;;;;;7.85;3.25;;;2.80;99.90;;;;;;5005246;28;20046;-66
2021/03/20 06:37:34;;;;;;;8.65;3.58;;;3.00;99.90;;;;;;5004083;28;20042;-65
2021/03/20 06:40:18;;;;;;;9.15;3.72;;;3.10;99.90;;;;;;5005187;28;20033;-65
2021/03/20 06:42:45;;;;;;;8.00;2.75;;;3.20;99.90;;;;;;5010016;28;20037;-65
2021/03/20 06:45:20;;;;;;;10.13;3.13;;;3.30;99.90;;;;;;5006263;28;20054;-65
2021/03/20 06:47:49;;;;;;;7.80;3.40;;;3.50;99.90;;;;;;5005511;28;20060;-65
2021/03/20 06:50:22;;;;;;;10.70;3.30;;;3.60;99.90;;;;;;5008390;28;20042;-66
2021/03/20 06:53:06;;;;;;;8.20;2.92;;;3.70;99.90;;;;;;5006373;28;20094;-65
2021/03/20 06:55:38;;;;;;;5.95;3.40;;;3.80;99.90;;;;;;5004293;28;20216;-65
2021/03/20 06:58:21;;;;;;;6.55;2.90;;;3.80;99.90;;;;;;5009156;28;20487;-66
2021/03/20 07:00:47;;;;;;;5.20;3.20;;;3.90;99.90;;;;;;5011726;28;20030;-65
2021/03/20 07:03:53;;;;;;;4.97;2.90;;;3.90;99.90;;;;;;5010755;28;20616;-65
2021/03/20 07:06:44;;;;;;;5.60;3.22;;;3.90;99.90;;;;;;5010172;28;20072;-66
2021/03/20 07:09:09;;;;;;;5.05;2.95;;;4.00;99.90;;;;;;5009618;28;20037;-65
2021/03/20 07:11:44;;;;;;;5.38;2.75;;;4.10;99.90;;;;;;5013972;28;20030;-66
2021/03/20 07:14:31;;;;;;;6.90;3.35;;;4.10;99.90;;;;;;5015408;28;20034;-66
2021/03/20 07:17:02;;;;;;;5.63;2.63;;;4.20;99.90;;;;;;5015060;28;20030;-66
2021/03/20 07:19:28;;;;;;;;;;;4.30;99.90;;;;;;5017735;28;20030;-66
2021/03/20 07:21:56;;;;;;;6.93;2.65;;;4.30;99.90;;;;;;5021918;28;19933;-66
2021/03/20 07:24:36;;;;;;;5.80;2.65;;;4.40;99.90;;;;;;5020819;28;20045;-66
2021/03/20 07:27:18;;;;;;;5.50;2.70;;;4.50;99.90;;;;;;5011287;28;20033;-66
2021/03/20 07:29:49;;;;;;;7.03;2.97;;;4.60;99.90;;;;;;5009029;28;20029;-66
2021/03/20 07:32:30;;;;;;;5.20;2.67;;;4.60;99.90;;;;;;5012453;28;20049;-65
2021/03/20 07:35:11;;;;;;;5.57;3.10;;;4.70;99.90;;;;;;5010455;28;20124;-65
2021/03/20 07:37:37;;;;;;;10.02;2.72;;;4.70;99.90;;;;;;5010234;28;20061;-65
2021/03/20 07:40:13;;;;;;;6.25;3.20;;;4.70;99.90;;;;;;5012549;28;20491;-65
2021/03/20 07:42:41;;;;;;;6.25;3.28;;;4.80;99.90;;;;;;5015034;28;20030;-65
2021/03/20 07:45:17;;;;;;;7.68;3.20;;;5.00;99.90;;;;;;5014983;28;20033;-65
2021/03/20 07:47:58;;;;;;;7.38;2.88;;;5.10;99.90;;;;;;5011234;28;20104;-66
2021/03/20 07:50:26;;;;;;;5.70;2.63;;;5.20;99.90;;;;;;5023159;28;21956;-66
2021/03/20 07:53:18;;;;;;;7.53;2.70;;;5.30;99.90;;;;;;5021746;28;20044;-66
2021/03/20 07:56:03;;;;;;;4.03;2.67;;;5.40;99.90;;;;;;5016456;28;20430;-66
2021/03/20 07:58:41;;;;;;;5.53;2.70;;;5.40;99.90;;;;;;5008842;28;20028;-66
2021/03/20 08:01:25;;;;;;;5.15;2.28;;;5.30;99.90;;;;;;5009774;28;20034;-66
2021/03/20 08:03:55;;;;;;;6.03;2.72;;;5.50;99.90;;;;;;5013869;28;20274;-66
2021/03/20 08:06:24;;;;;;;5.72;2.67;;;5.50;99.90;;;;;;5011385;28;20038;-66
2021/03/20 08:09:25;;;;;;;6.32;2.53;;;5.60;99.90;;;;;;5011208;28;20064;-66
2021/03/20 08:12:07;;;;;;;4.50;2.28;;;5.70;99.90;;;;;;5005908;28;20049;-66
2021/03/20 08:14:39;;;;;;;8.35;1.88;;;5.80;99.90;;;;;;5009696;28;20080;-66
2021/03/20 08:17:09;;;;;;;4.25;2.10;;;5.90;99.90;;;;;;5008931;28;20041;-66
2021/03/20 08:19:35;;;;;;;3.45;1.92;;;6.00;99.90;;;;;;5011153;28;20029;-66
2021/03/20 08:22:22;;;;;;;3.97;2.10;;;6.10;99.90;;;;;;5006966;28;20061;-66
2021/03/20 08:25:19;;;;;;;5.63;2.75;;;6.30;99.90;;;;;;5012866;28;20053;-67
2021/03/20 08:28:10;;;;;;;4.93;2.20;;;6.40;99.90;;;;;;5006230;28;20037;-66
2021/03/20 08:30:39;;;;;;;;;;;6.60;99.90;;;;;;5006240;28;20034;-66
2021/03/20 08:33:10;;;;;;;5.45;2.17;;;6.60;99.90;;;;;;5010598;28;19920;-66
2021/03/20 08:35:49;;;;;;;7.53;2.38;;;6.50;99.90;;;;;;5007983;28;20057;-65
2021/03/20 08:38:43;;;;;;;4.63;2.00;;;6.50;99.90;;;;;;5007710;28;20810;-66
2021/03/20 08:41:33;;;;;;;4.53;2.00;;;6.60;99.90;;;;;;5008056;28;20048;-66
2021/03/20 08:44:22;;;;;;;4.25;1.98;;;6.70;99.90;;;;;;5008380;28;20041;-65
2021/03/20 08:46:59;;;;;;;8.02;2.38;;;6.60;99.90;;;;;;5008915;28;20066;-66
2021/03/20 08:49:47;;;;;;;4.20;1.83;;;6.70;99.90;;;;;;5007255;28;20034;-66
2021/03/20 08:52:36;;;;;;;4.35;1.95;;;6.70;99.90;;;;;;5007252;28;20026;-66
2021/03/20 08:55:15;;;;;;;4.72;2.15;;;6.70;99.90;;;;;;5012338;28;20038;-65
2021/03/20 08:58:02;;;;;;;8.75;2.50;;;6.70;99.90;;;;;;5007788;28;20507;-66
2021/03/20 09:00:56;;;;;;;7.88;2.40;;;6.70;99.90;;;;;;5006367;28;20033;-66
2021/03/20 09:03:31;;;;;;;5.25;2.88;;;6.80;99.90;;;;;;5005880;28;20034;-66
2021/03/20 09:06:14;;;;;;;5.43;2.50;;;6.90;99.90;;;;;;5004950;28;20038;-66
2021/03/20 09:08:42;;;;;;;4.88;2.72;;;7.00;99.90;;;;;;5007373;28;20483;-66
2021/03/20 09:11:21;;;;;;;7.80;3.22;;;7.10;99.90;;;;;;5011967;28;20116;-66
2021/03/20 09:13:55;;;;;;;7.07;2.92;;;7.10;99.90;;;;;;5015571;28;20064;-66
2021/03/20 09:16:39;;;;;;;5.43;2.42;;;7.30;99.90;;;;;;5010742;28;20133;-66
2021/03/20 09:19:08;;;;;;;9.25;2.75;;;7.30;99.90;;;;;;5029647;28;20454;-65
2021/03/20 09:21:38;;;;;;;5.80;2.90;;;7.40;99.90;;;;;;5017681;28;20125;-65
2021/03/20 09:24:12;;;;;;;4.47;1.98;;;7.50;99.90;;;;;;5017766;28;20048;-66
2021/03/20 09:26:43;;;;;;;5.00;2.03;;;7.60;99.90;;;;;;5017852;28;20033;-66
2021/03/20 09:29:15;;;;;;;4.38;1.92;;;7.70;96.90;;;;;;5017954;28;20038;-66
2021/03/20 09:31:52;;;;;;;3.72;2.00;;;7.80;95.90;;;;;;5016252;28;20387;-65
2021/03/20 09:34:36;;;;;;;5.53;2.33;;;7.90;97.80;;;;;;5028022;28;20038;-65
2021/03/20 09:37:06;;;;;;;4.28;2.20;;;7.90;96.20;;;;;;5015800;28;20165;-65
2021/03/20 09:39:45;;;;;;;4.38;1.80;;;7.90;97.60;;;;;;5017526;28;20045;-66
2021/03/20 09:42:37;;;;;;;4.15;1.80;;;8.00;97.30;;;;;;5015919;28;20546;-66
2021/03/20 09:45:23;;;;;;;2.63;1.25;;;8.10;95.80;;;;;;5013614;28;20100;-66
2021/03/20 09:47:53;;;;;;;3.67;1.70;;;8.40;91.30;;;;;;5012544;28;20030;-65
2021/03/20 09:50:18;;;;;;;10.55;1.77;;;8.50;90.30;;;;;;5010920;28;20141;-66
2021/03/20 09:53:22;;;;;;;4.88;1.25;;;8.80;91.60;;;;;;5019730;28;20486;-66
2021/03/20 09:55:50;;;;;;;2.13;1.10;;;8.90;82.10;;;;;;5007913;28;20034;-65
2021/03/20 09:58:18;;;;;;;3.00;1.40;;;9.00;76.30;;;;;;5016488;28;20041;-66
2021/03/20 10:00:49;;;;;;;2.50;1.42;;;9.00;75.80;;;;;;5018984;28;20037;-66
2021/03/20 10:03:41;;;;;;;2.92;1.65;;;8.90;75.30;;;;;;5015736;28;20050;-66
2021/03/20 10:06:34;;;;;;;4.93;1.80;;;8.90;81.10;;;;;;5015739;28;20399;-66
2021/03/20 10:09:11;;;;;;;2.30;1.10;;;8.90;77.40;;;;;;5013639;28;20030;-65
2021/03/20 10:11:36;;;;;;;3.42;1.35;;;8.80;67.70;;;;;;5014831;28;20041;-65
2021/03/20 10:14:22;;;;;;;3.15;1.52;;;8.70;70.10;;;;;;5017371;28;20511;-66
2021/03/20 10:17:13;;;;;;;2.13;1.45;;;8.80;74.20;;;;;;5010844;28;20033;-66
2021/03/20 10:19:52;;;;;;;;;;;9.00;81.40;;;;;;5018376;28;20026;-66
2021/03/20 10:22:24;;;;;;;5.28;1.40;;;9.20;73.90;;;;;;5027271;28;19948;-65
2021/03/20 10:24:51;;;;;;;3.55;1.60;;;9.40;74.20;;;;;;5015611;28;20029;-65
2021/03/20 10:27:30;;;;;;;3.88;1.80;;;9.50;71.90;;;;;;5015195;28;20045;-66
2021/03/20 10:30:18;;;;;;;2.53;1.35;;;9.60;71.20;;;;;;5015934;28;20401;-66
2021/03/20 10:33:02;;;;;;;4.75;2.42;;;9.50;71.60;;;;;;5019003;28;20029;-66
2021/03/20 10:35:31;;;;;;;7.45;1.90;;;9.40;70.50;;;;;;5019026;28;20037;-65
2021/03/20 10:38:23;;;;;;;2.63;1.50;;;9.40;72.30;;;;;;5022627;28;20478;-65
2021/03/20 10:41:08;;;;;;;2.47;1.30;;;9.40;69.60;;;;;;5016565;28;20410;-65
2021/03/20 10:43:57;;;;;;;2.20;1.55;;;9.30;70.90;;;;;;5019577;28;20041;-66
2021/03/20 10:46:30;;;;;;;5.35;2.05;;;9.20;72.20;;;;;;5020666;28;20050;-66
2021/03/20 10:48:58;;;;;;;2.83;1.73;;;9.10;72.70;;;;;;5020817;28;20095;-65
2021/03/20 10:51:26;;;;;;;3.20;1.50;;;9.20;73.50;;;;;;5020812;28;20033;-65
2021/03/20 10:53:58;;;;;;;3.25;1.48;;;9.20;75.30;;;;;;5023021;28;20033;-66
2021/03/20 10:56:33;;;;;;;4.80;1.80;;;9.20;75.60;;;;;;5025377;28;20057;-66
2021/03/20 10:59:00;;;;;;;3.90;1.77;;;9.20;77.60;;;;;;5029943;28;20037;-66
2021/03/20 11:01:36;;;;;;;3.05;2.13;;;9.30;76.40;;;;;;5028430;28;20034;-66
2021/03/20 11:04:03;;;;;;;3.90;2.00;;;9.30;78.10;;;;;;5022341;28;20038;-66
2021/03/20 11:06:30;;;;;;;4.05;1.70;;;9.30;79.70;;;;;;5020996;28;20415;-65
2021/03/20 11:09:20;;;;;;;4.65;1.83;;;9.30;78.30;;;;;;5021057;28;20112;-65
2021/03/20 11:11:46;;;;;;;8.93;3.27;;;9.20;75.50;;;;;;5015631;28;20495;-66
2021/03/20 11:14:19;;;;;;;5.55;2.17;;;9.30;78.80;;;;;;5012443;28;20029;-66
2021/03/20 11:16:52;;;;;;;3.92;1.50;;;9.30;76.60;;;;;;5020845;28;20037;-66
2021/03/20 11:19:30;;;;;;;3.95;1.92;;;9.30;74.40;;;;;;5017451;28;20045;-70
2021/03/20 11:22:01;;;;;;;6.38;1.85;;;9.20;74.60;;;;;;5023753;28;20112;-66
2021/03/20 11:24:34;;;;;;;3.88;1.80;;;9.20;79.90;;;;;;5026649;28;20087;-65
2021/03/20 11:27:14;;;;;;;3.38;1.58;;;9.10;80.60;;;;;;5019377;28;20049;-65
2021/03/20 11:29:40;;;;;;;;;;;9.20;80.40;;;;;;5019633;28;20372;-65
2021/03/20 11:32:36;;;;;;;5.40;2.28;;;9.30;80.70;;;;;;5019795;28;19928;-66
2021/03/20 11:35:08;;;;;;;4.45;1.95;;;9.30;85.90;;;;;;5018087;28;20041;-65
2021/03/20 11:37:34;;;;;;;6.10;1.80;;;9.30;80.70;;;;;;5019806;28;20037;-66
2021/03/20 11:40:02;;;;;;;3.15;1.60;;;9.30;83.50;;;;;;5018740;28;20049;-65
2021/03/20 11:42:39;;;;;;;4.18;1.88;;;9.30;82.60;;;;;;5017404;28;20422;-66
2021/03/20 11:45:18;;;;;;;3.63;1.50;;;9.40;78.20;;;;;;5018870;28;20038;-66
2021/03/20 11:47:49;;;;;;;7.07;2.13;;;9.30;80.20;;;;;;5014473;28;20049;-67
2021/03/20 11:50:21;;;;;;;3.22;1.55;;;9.40;84.60;;;;;;5015981;28;20486;-66
2021/03/20 11:52:49;;;;;;;2.22;1.00;;;9.40;82.80;;;;;;5022964;28;20144;-66
2021/03/20 11:55:26;;;;;;;5.00;1.50;;;9.50;74.80;;;;;;5026793;28;20045;-65
2021/03/20 11:58:02;;;;;;;3.65;1.55;;;9.50;77.10;;;;;;5028920;28;20391;-66
2021/03/20 12:00:37;;;;;;;7.45;1.73;;;9.50;76.60;;;;;;5024596;28;20031;-66
2021/03/20 12:03:24;;;;;;;2.42;1.48;;;9.50;78.70;;;;;;5021888;28;20042;-65
2021/03/20 12:06:20;;;;;;;3.42;1.60;;;9.50;78.20;;;;;;5001468;28;20038;-66
2021/03/20 12:08:55;;;;;;;3.30;1.35;;;9.40;76.80;;;;;;5013362;28;24893;-66
2021/03/20 12:11:46;;;;;;;5.95;2.40;;;9.40;78.80;;;;;;5012324;28;20034;-67
2021/03/20 12:14:33;;;;;;;3.33;1.92;;;9.40;81.50;;;;;;5030680;28;20037;-66
2021/03/20 12:17:13;;;;;;;5.75;2.33;;;9.40;84.00;;;;;;5013557;28;20041;-66
2021/03/20 12:19:53;;;;;;;4.32;2.28;;;9.30;86.60;;;;;;5012285;28;20029;-66
2021/03/20 12:22:44;;;;;;;7.18;2.80;;;9.40;90.00;;;;;;5011300;28;20046;-64
2021/03/20 12:25:34;;;;;;;4.70;2.10;;;9.40;90.70;;;;;;5009332;28;20090;-67
2021/03/20 12:28:34;;;;;;;5.15;2.40;;;9.50;90.30;;;;;;5014894;28;20042;-66
2021/03/20 12:31:07;;;;;;;6.20;2.30;;;9.70;89.80;;;;;;5030317;28;20048;-66
2021/03/20 12:33:57;;;;;;;4.78;2.50;;;9.80;91.30;;;;;;5013052;28;20026;-66
2021/03/20 12:36:28;;;;;;;5.85;2.50;;;10.10;91.90;;;;;;5010959;28;20044;-66
2021/03/20 12:38:54;;;;;;;5.82;2.70;;;10.30;92.20;;;;;;5015889;28;20084;-66
2021/03/20 12:41:22;;;;;;;4.47;2.40;;;10.40;90.00;;;;;;5011956;28;20026;-65
2021/03/20 12:44:05;;;;;;;5.80;2.10;;;10.20;90.40;;;;;;5020556;28;20095;-65
2021/03/20 12:46:31;;;;;;;5.88;2.20;;;10.00;91.00;;;;;;5015163;28;20037;-66
2021/03/20 12:48:57;;;;;;;6.82;2.75;;;10.00;92.80;;;;;;5017144;28;20522;-66
2021/03/20 12:51:24;;;;;;;5.78;2.20;;;10.20;92.90;;;;;;5018762;28;20088;-65
2021/03/20 12:53:50;;;;;;;5.32;2.03;;;10.30;91.50;;;;;;5016395;28;20050;-65
2021/03/20 12:56:16;;;;;;;4.55;2.28;;;10.40;91.90;;;;;;5016595;28;20135;-65
2021/03/20 12:58:42;;;;;;;4.80;2.17;;;10.50;91.90;;;;;;5017553;28;20041;-66
2021/03/20 13:01:07;;;;;;;5.15;2.30;;;10.60;91.50;;;;;;5020028;28;20040;-66
2021/03/20 13:03:34;;;;;;;2.40;1.70;;;10.60;92.40;;;;;;5016393;28;20037;-65
2021/03/20 13:05:59;;;;;;;3.97;2.22;;;10.70;91.30;;;;;;5019568;28;20065;-66
2021/03/20 13:08:26;;;;;;;7.88;1.60;;;10.80;90.40;;;;;;5016535;28;20578;-66
2021/03/20 13:10:52;;;;;;;3.47;1.92;;;10.80;90.20;;;;;;5018115;28;20042;-65
2021/03/20 13:13:17;;;;;;;2.83;1.90;;;10.60;90.20;;;;;;5018510;28;20045;-66
2021/03/20 13:15:43;;;;;;;8.27;1.80;;;10.60;91.70;;;;;;5017142;28;20543;-64
2021/03/20 13:18:09;;;;;;;5.38;2.20;;;10.60;92.50;;;;;;5020625;28;20033;-66
2021/03/20 13:20:35;;;;;;;5.80;1.90;;;10.70;90.20;;;;;;5012279;28;20061;-66
2021/03/20 13:23:00;;;;;;;4.10;1.73;;;10.70;90.80;;;;;;5017941;28;20068;-66
2021/03/20 13:25:31;;;;;;;5.43;2.47;;;10.80;89.20;;;;;;5017336;28;20037;-65
2021/03/20 13:27:57;;;;;;;3.22;1.50;;;10.80;88.70;;;;;;5017848;28;20037;-66
2021/03/20 13:30:25;;;;;;;3.85;2.15;;;10.80;90.40;;;;;;5019441;28;20083;-65
2021/03/20 13:32:52;;;;;;;5.68;2.00;;;10.90;92.10;;;;;;5018409;28;20037;-66
2021/03/20 13:35:20;;;;;;;7.63;2.03;;;10.90;91.70;;;;;;5017661;28;20073;-65
2021/03/20 13:37:46;;;;;;;5.38;1.80;;;11.00;90.40;;;;;;5019074;28;20045;-65
2021/03/20 13:40:13;;;;;;;6.18;1.70;;;11.00;90.00;;;;;;5016778;28;20156;-66